sensor_id;sensor_type;location;lat;lon;timestamp;P1;durP1;ratioP1;P2;durP2;ratioP2
75997;SDS011;64685;48.762;44.822;2023-09-19T00:03:50;11.20;;;6.57;;
75997;SDS011;64685;48.762;44.822;2023-09-19T00:08:52;14.38;;;6.57;;
75997;SDS011;64685;48.762;44.822;2023-09-19T00:13:57;15.75;;;7.30;;
75997;SDS011;64685;48.762;44.822;2023-09-19T00:19:02;13.10;;;6.90;;
75997;SDS011;64685;48.762;44.822;2023-09-19T00:24:05;12.27;;;7.20;;
75997;SDS011;64685;48.762;44.822;2023-09-19T00:29:08;13.82;;;6.72;;
75997;SDS011;64685;48.762;44.822;2023-09-19T00:34:10;14.02;;;6.88;;
75997;SDS011;64685;48.762;44.822;2023-09-19T00:39:13;11.13;;;6.45;;
75997;SDS011;64685;48.762;44.822;2023-09-19T00:44:16;12.20;;;6.30;;
75997;SDS011;64685;48.762;44.822;2023-09-19T00:49:19;10.90;;;5.88;;
75997;SDS011;64685;48.762;44.822;2023-09-19T00:54:24;11.43;;;5.38;;
75997;SDS011;64685;48.762;44.822;2023-09-19T00:59:28;11.63;;;5.57;;
75997;SDS011;64685;48.762;44.822;2023-09-19T01:04:32;11.93;;;5.85;;
75997;SDS011;64685;48.762;44.822;2023-09-19T01:09:35;13.38;;;5.88;;
75997;SDS011;64685;48.762;44.822;2023-09-19T01:14:42;11.27;;;6.80;;
75997;SDS011;64685;48.762;44.822;2023-09-19T01:30:51;12.98;;;6.68;;
75997;SDS011;64685;48.762;44.822;2023-09-19T01:36:02;10.27;;;5.78;;
75997;SDS011;64685;48.762;44.822;2023-09-19T01:41:06;10.18;;;6.00;;
75997;SDS011;64685;48.762;44.822;2023-09-19T02:02:24;11.50;;;5.95;;
75997;SDS011;64685;48.762;44.822;2023-09-19T02:07:28;9.93;;;5.50;;
75997;SDS011;64685;48.762;44.822;2023-09-19T02:12:33;10.68;;;4.93;;
75997;SDS011;64685;48.762;44.822;2023-09-19T02:17:38;11.75;;;6.07;;
75997;SDS011;64685;48.762;44.822;2023-09-19T02:22:41;10.13;;;5.25;;
75997;SDS011;64685;48.762;44.822;2023-09-19T02:28:04;10.73;;;5.93;;
75997;SDS011;64685;48.762;44.822;2023-09-19T02:33:07;14.18;;;6.82;;
75997;SDS011;64685;48.762;44.822;2023-09-19T02:38:10;11.13;;;6.20;;
75997;SDS011;64685;48.762;44.822;2023-09-19T02:43:14;10.93;;;6.22;;
75997;SDS011;64685;48.762;44.822;2023-09-19T02:48:17;10.05;;;6.25;;
75997;SDS011;64685;48.762;44.822;2023-09-19T02:53:20;11.68;;;5.72;;
75997;SDS011;64685;48.762;44.822;2023-09-19T02:58:24;9.73;;;5.22;;
75997;SDS011;64685;48.762;44.822;2023-09-19T03:03:27;12.05;;;6.25;;
75997;SDS011;64685;48.762;44.822;2023-09-19T03:08:31;9.88;;;5.30;;
75997;SDS011;64685;48.762;44.822;2023-09-19T03:13:35;10.60;;;5.28;;
75997;SDS011;64685;48.762;44.822;2023-09-19T03:18:41;12.35;;;5.57;;
75997;SDS011;64685;48.762;44.822;2023-09-19T03:23:43;11.25;;;6.20;;
75997;SDS011;64685;48.762;44.822;2023-09-19T03:28:49;18.33;;;6.30;;
75997;SDS011;64685;48.762;44.822;2023-09-19T03:33:52;12.52;;;6.47;;
75997;SDS011;64685;48.762;44.822;2023-09-19T03:38:56;12.10;;;5.55;;
75997;SDS011;64685;48.762;44.822;2023-09-19T03:44:01;13.95;;;6.30;;
75997;SDS011;64685;48.762;44.822;2023-09-19T03:49:04;12.23;;;5.85;;
75997;SDS011;64685;48.762;44.822;2023-09-19T03:54:07;10.02;;;5.70;;
75997;SDS011;64685;48.762;44.822;2023-09-19T03:59:10;12.75;;;7.82;;
75997;SDS011;64685;48.762;44.822;2023-09-19T04:04:14;13.63;;;7.88;;
75997;SDS011;64685;48.762;44.822;2023-09-19T04:09:17;10.80;;;6.47;;
75997;SDS011;64685;48.762;44.822;2023-09-19T04:14:22;10.15;;;6.55;;
75997;SDS011;64685;48.762;44.822;2023-09-19T04:19:25;12.13;;;6.28;;
75997;SDS011;64685;48.762;44.822;2023-09-19T04:24:29;13.07;;;6.40;;
75997;SDS011;64685;48.762;44.822;2023-09-19T04:29:32;14.60;;;6.50;;
75997;SDS011;64685;48.762;44.822;2023-09-19T04:34:35;10.90;;;5.85;;
75997;SDS011;64685;48.762;44.822;2023-09-19T04:39:37;13.38;;;7.05;;
75997;SDS011;64685;48.762;44.822;2023-09-19T04:44:40;13.90;;;5.85;;
75997;SDS011;64685;48.762;44.822;2023-09-19T04:49:44;14.02;;;6.95;;
75997;SDS011;64685;48.762;44.822;2023-09-19T04:54:46;11.63;;;6.30;;
75997;SDS011;64685;48.762;44.822;2023-09-19T04:59:50;13.50;;;7.10;;
75997;SDS011;64685;48.762;44.822;2023-09-19T05:04:52;14.27;;;6.85;;
75997;SDS011;64685;48.762;44.822;2023-09-19T05:09:56;14.30;;;7.28;;
75997;SDS011;64685;48.762;44.822;2023-09-19T05:14:58;12.10;;;6.20;;
75997;SDS011;64685;48.762;44.822;2023-09-19T05:20:01;13.40;;;7.47;;
75997;SDS011;64685;48.762;44.822;2023-09-19T05:25:11;11.70;;;6.32;;
75997;SDS011;64685;48.762;44.822;2023-09-19T05:30:19;12.07;;;7.05;;
75997;SDS011;64685;48.762;44.822;2023-09-19T05:35:22;14.68;;;6.90;;
75997;SDS011;64685;48.762;44.822;2023-09-19T05:40:26;15.27;;;7.35;;
75997;SDS011;64685;48.762;44.822;2023-09-19T05:45:29;12.55;;;6.68;;
75997;SDS011;64685;48.762;44.822;2023-09-19T05:50:32;14.15;;;7.28;;
75997;SDS011;64685;48.762;44.822;2023-09-19T05:55:36;14.65;;;8.10;;
75997;SDS011;64685;48.762;44.822;2023-09-19T06:00:38;15.23;;;7.53;;
75997;SDS011;64685;48.762;44.822;2023-09-19T06:05:43;13.82;;;7.93;;
75997;SDS011;64685;48.762;44.822;2023-09-19T06:10:48;15.50;;;7.40;;
75997;SDS011;64685;48.762;44.822;2023-09-19T06:15:51;14.45;;;7.88;;
75997;SDS011;64685;48.762;44.822;2023-09-19T06:20:53;14.48;;;6.80;;
75997;SDS011;64685;48.762;44.822;2023-09-19T06:25:56;15.55;;;7.45;;
75997;SDS011;64685;48.762;44.822;2023-09-19T06:31:01;9.23;;;6.38;;
75997;SDS011;64685;48.762;44.822;2023-09-19T06:36:05;13.45;;;7.25;;
75997;SDS011;64685;48.762;44.822;2023-09-19T06:41:08;17.25;;;7.85;;
75997;SDS011;64685;48.762;44.822;2023-09-19T06:46:11;16.58;;;9.45;;
75997;SDS011;64685;48.762;44.822;2023-09-19T06:51:15;12.25;;;7.47;;
75997;SDS011;64685;48.762;44.822;2023-09-19T07:01:20;17.48;;;8.52;;
75997;SDS011;64685;48.762;44.822;2023-09-19T07:06:23;15.15;;;8.70;;
75997;SDS011;64685;48.762;44.822;2023-09-19T07:11:26;18.10;;;8.50;;
75997;SDS011;64685;48.762;44.822;2023-09-19T07:21:32;21.40;;;14.32;;
75997;SDS011;64685;48.762;44.822;2023-09-19T07:26:35;15.77;;;9.27;;
75997;SDS011;64685;48.762;44.822;2023-09-19T07:31:37;34.03;;;22.80;;
75997;SDS011;64685;48.762;44.822;2023-09-19T07:36:40;35.00;;;18.20;;
75997;SDS011;64685;48.762;44.822;2023-09-19T07:41:45;12.70;;;6.38;;
75997;SDS011;64685;48.762;44.822;2023-09-19T07:46:49;15.85;;;6.97;;
75997;SDS011;64685;48.762;44.822;2023-09-19T07:51:53;9.75;;;5.18;;
75997;SDS011;64685;48.762;44.822;2023-09-19T07:56:57;10.18;;;5.35;;
75997;SDS011;64685;48.762;44.822;2023-09-19T08:02:00;11.82;;;6.30;;
75997;SDS011;64685;48.762;44.822;2023-09-19T08:07:04;10.77;;;5.35;;
75997;SDS011;64685;48.762;44.822;2023-09-19T08:12:08;11.15;;;5.63;;
75997;SDS011;64685;48.762;44.822;2023-09-19T08:17:12;9.43;;;5.10;;
75997;SDS011;64685;48.762;44.822;2023-09-19T08:22:15;10.65;;;5.95;;
75997;SDS011;64685;48.762;44.822;2023-09-19T08:27:19;9.15;;;4.40;;
75997;SDS011;64685;48.762;44.822;2023-09-19T08:32:22;10.50;;;5.18;;
75997;SDS011;64685;48.762;44.822;2023-09-19T08:37:27;8.18;;;4.30;;
75997;SDS011;64685;48.762;44.822;2023-09-19T08:42:29;8.02;;;4.22;;
75997;SDS011;64685;48.762;44.822;2023-09-19T08:47:38;7.93;;;4.30;;
75997;SDS011;64685;48.762;44.822;2023-09-19T08:52:48;9.27;;;4.30;;
75997;SDS011;64685;48.762;44.822;2023-09-19T08:58:00;14.93;;;5.40;;
75997;SDS011;64685;48.762;44.822;2023-09-19T09:03:07;8.88;;;4.50;;
75997;SDS011;64685;48.762;44.822;2023-09-19T09:08:12;10.02;;;4.60;;
75997;SDS011;64685;48.762;44.822;2023-09-19T09:13:16;8.00;;;4.60;;
75997;SDS011;64685;48.762;44.822;2023-09-19T09:18:20;8.52;;;5.10;;
75997;SDS011;64685;48.762;44.822;2023-09-19T09:23:22;8.57;;;5.10;;
75997;SDS011;64685;48.762;44.822;2023-09-19T09:28:27;8.00;;;4.70;;
75997;SDS011;64685;48.762;44.822;2023-09-19T09:33:32;8.02;;;4.28;;
75997;SDS011;64685;48.762;44.822;2023-09-19T09:38:45;10.35;;;5.00;;
75997;SDS011;64685;48.762;44.822;2023-09-19T09:43:53;9.23;;;4.05;;
75997;SDS011;64685;48.762;44.822;2023-09-19T09:48:57;6.55;;;4.70;;
75997;SDS011;64685;48.762;44.822;2023-09-19T09:54:18;8.77;;;4.57;;
75997;SDS011;64685;48.762;44.822;2023-09-19T10:05:11;9.70;;;4.38;;
75997;SDS011;64685;48.762;44.822;2023-09-19T10:10:41;6.50;;;3.97;;
75997;SDS011;64685;48.762;44.822;2023-09-19T10:15:44;6.68;;;4.10;;
75997;SDS011;64685;48.762;44.822;2023-09-19T10:20:54;6.43;;;3.85;;
75997;SDS011;64685;48.762;44.822;2023-09-19T10:25:59;6.68;;;3.63;;
75997;SDS011;64685;48.762;44.822;2023-09-19T10:31:07;11.93;;;4.70;;
75997;SDS011;64685;48.762;44.822;2023-09-19T10:36:11;9.20;;;3.78;;
75997;SDS011;64685;48.762;44.822;2023-09-19T10:41:16;6.40;;;3.38;;
75997;SDS011;64685;48.762;44.822;2023-09-19T10:46:21;7.88;;;3.60;;
75997;SDS011;64685;48.762;44.822;2023-09-19T10:51:25;6.57;;;3.20;;
75997;SDS011;64685;48.762;44.822;2023-09-19T10:56:37;9.38;;;3.38;;
75997;SDS011;64685;48.762;44.822;2023-09-19T11:07:00;6.90;;;3.70;;
75997;SDS011;64685;48.762;44.822;2023-09-19T11:17:43;9.15;;;3.90;;
75997;SDS011;64685;48.762;44.822;2023-09-19T11:38:56;8.07;;;3.30;;
75997;SDS011;64685;48.762;44.822;2023-09-19T11:49:07;5.63;;;2.95;;
75997;SDS011;64685;48.762;44.822;2023-09-19T11:54:17;7.15;;;3.20;;
75997;SDS011;64685;48.762;44.822;2023-09-19T11:59:24;7.65;;;3.50;;
75997;SDS011;64685;48.762;44.822;2023-09-19T12:09:46;7.55;;;3.08;;
75997;SDS011;64685;48.762;44.822;2023-09-19T12:14:50;5.90;;;2.78;;
75997;SDS011;64685;48.762;44.822;2023-09-19T12:19:56;7.00;;;3.25;;
75997;SDS011;64685;48.762;44.822;2023-09-19T12:25:05;8.20;;;3.45;;
75997;SDS011;64685;48.762;44.822;2023-09-19T12:30:12;9.65;;;4.40;;
75997;SDS011;64685;48.762;44.822;2023-09-19T12:35:29;9.90;;;5.50;;
75997;SDS011;64685;48.762;44.822;2023-09-19T12:45:45;8.52;;;3.13;;
75997;SDS011;64685;48.762;44.822;2023-09-19T12:56:15;4.82;;;2.75;;
75997;SDS011;64685;48.762;44.822;2023-09-19T13:01:20;7.65;;;3.08;;
75997;SDS011;64685;48.762;44.822;2023-09-19T13:06:37;6.90;;;2.90;;
75997;SDS011;64685;48.762;44.822;2023-09-19T13:11:40;6.55;;;3.30;;
75997;SDS011;64685;48.762;44.822;2023-09-19T13:16:56;8.50;;;3.50;;
75997;SDS011;64685;48.762;44.822;2023-09-19T13:27:48;6.40;;;3.22;;
75997;SDS011;64685;48.762;44.822;2023-09-19T13:33:08;6.95;;;3.22;;
75997;SDS011;64685;48.762;44.822;2023-09-19T13:38:12;6.25;;;2.92;;
75997;SDS011;64685;48.762;44.822;2023-09-19T13:43:15;6.95;;;3.15;;
75997;SDS011;64685;48.762;44.822;2023-09-19T13:48:18;6.82;;;2.55;;
75997;SDS011;64685;48.762;44.822;2023-09-19T13:53:24;6.97;;;3.10;;
75997;SDS011;64685;48.762;44.822;2023-09-19T13:58:27;5.68;;;2.88;;
75997;SDS011;64685;48.762;44.822;2023-09-19T14:03:31;5.65;;;3.03;;
75997;SDS011;64685;48.762;44.822;2023-09-19T14:08:34;6.63;;;2.95;;
75997;SDS011;64685;48.762;44.822;2023-09-19T14:13:36;7.10;;;3.13;;
75997;SDS011;64685;48.762;44.822;2023-09-19T14:18:39;7.60;;;2.90;;
75997;SDS011;64685;48.762;44.822;2023-09-19T14:23:43;8.60;;;3.28;;
75997;SDS011;64685;48.762;44.822;2023-09-19T14:28:46;5.82;;;2.80;;
75997;SDS011;64685;48.762;44.822;2023-09-19T14:33:53;9.85;;;3.15;;
75997;SDS011;64685;48.762;44.822;2023-09-19T14:38:57;8.40;;;3.15;;
75997;SDS011;64685;48.762;44.822;2023-09-19T14:44:02;7.75;;;3.53;;
75997;SDS011;64685;48.762;44.822;2023-09-19T14:49:05;8.45;;;3.20;;
75997;SDS011;64685;48.762;44.822;2023-09-19T14:54:08;8.13;;;3.75;;
75997;SDS011;64685;48.762;44.822;2023-09-19T14:59:11;9.68;;;3.95;;
75997;SDS011;64685;48.762;44.822;2023-09-19T15:04:15;12.00;;;4.38;;
75997;SDS011;64685;48.762;44.822;2023-09-19T15:09:17;11.85;;;4.90;;
75997;SDS011;64685;48.762;44.822;2023-09-19T15:14:21;10.00;;;4.45;;
75997;SDS011;64685;48.762;44.822;2023-09-19T15:19:24;11.63;;;4.85;;
75997;SDS011;64685;48.762;44.822;2023-09-19T15:24:27;10.85;;;4.97;;
75997;SDS011;64685;48.762;44.822;2023-09-19T15:29:29;13.70;;;5.57;;
75997;SDS011;64685;48.762;44.822;2023-09-19T15:34:32;13.25;;;5.47;;
75997;SDS011;64685;48.762;44.822;2023-09-19T15:39:35;16.33;;;7.05;;
75997;SDS011;64685;48.762;44.822;2023-09-19T15:44:39;20.65;;;7.70;;
75997;SDS011;64685;48.762;44.822;2023-09-19T15:49:43;30.17;;;8.75;;
75997;SDS011;64685;48.762;44.822;2023-09-19T15:54:46;17.63;;;6.65;;
75997;SDS011;64685;48.762;44.822;2023-09-19T15:59:48;13.77;;;6.15;;
75997;SDS011;64685;48.762;44.822;2023-09-19T16:04:54;18.30;;;7.03;;
75997;SDS011;64685;48.762;44.822;2023-09-19T16:09:57;22.52;;;7.63;;
75997;SDS011;64685;48.762;44.822;2023-09-19T16:15:01;23.85;;;7.72;;
75997;SDS011;64685;48.762;44.822;2023-09-19T16:20:04;25.75;;;7.70;;
75997;SDS011;64685;48.762;44.822;2023-09-19T16:25:10;19.75;;;7.15;;
75997;SDS011;64685;48.762;44.822;2023-09-19T16:30:13;18.80;;;7.63;;
75997;SDS011;64685;48.762;44.822;2023-09-19T16:40:20;16.65;;;7.80;;
75997;SDS011;64685;48.762;44.822;2023-09-19T16:45:23;20.85;;;8.27;;
75997;SDS011;64685;48.762;44.822;2023-09-19T16:55:33;18.35;;;7.93;;
75997;SDS011;64685;48.762;44.822;2023-09-19T17:00:55;18.08;;;7.95;;
75997;SDS011;64685;48.762;44.822;2023-09-19T17:05:58;18.00;;;7.65;;
75997;SDS011;64685;48.762;44.822;2023-09-19T17:11:05;19.52;;;8.00;;
75997;SDS011;64685;48.762;44.822;2023-09-19T17:16:13;22.33;;;8.30;;
75997;SDS011;64685;48.762;44.822;2023-09-19T17:21:27;18.67;;;8.35;;
75997;SDS011;64685;48.762;44.822;2023-09-19T17:26:30;18.02;;;9.00;;
75997;SDS011;64685;48.762;44.822;2023-09-19T17:31:35;20.15;;;8.57;;
75997;SDS011;64685;48.762;44.822;2023-09-19T17:36:39;22.75;;;8.93;;
75997;SDS011;64685;48.762;44.822;2023-09-19T17:41:44;21.58;;;9.70;;
75997;SDS011;64685;48.762;44.822;2023-09-19T17:46:46;21.25;;;8.30;;
75997;SDS011;64685;48.762;44.822;2023-09-19T17:51:50;20.85;;;8.60;;
75997;SDS011;64685;48.762;44.822;2023-09-19T17:56:53;23.00;;;9.20;;
75997;SDS011;64685;48.762;44.822;2023-09-19T18:01:56;23.10;;;9.35;;
75997;SDS011;64685;48.762;44.822;2023-09-19T18:06:59;25.13;;;9.25;;
75997;SDS011;64685;48.762;44.822;2023-09-19T18:12:02;24.20;;;9.70;;
75997;SDS011;64685;48.762;44.822;2023-09-19T18:17:06;39.00;;;13.68;;
75997;SDS011;64685;48.762;44.822;2023-09-19T18:22:11;30.83;;;12.23;;
75997;SDS011;64685;48.762;44.822;2023-09-19T18:27:14;24.90;;;12.73;;
75997;SDS011;64685;48.762;44.822;2023-09-19T18:32:16;28.33;;;12.45;;
75997;SDS011;64685;48.762;44.822;2023-09-19T18:37:19;22.13;;;13.95;;
75997;SDS011;64685;48.762;44.822;2023-09-19T18:42:22;31.10;;;13.25;;
75997;SDS011;64685;48.762;44.822;2023-09-19T18:47:25;26.75;;;11.40;;
75997;SDS011;64685;48.762;44.822;2023-09-19T18:52:30;26.00;;;13.27;;
75997;SDS011;64685;48.762;44.822;2023-09-19T18:57:33;28.15;;;11.88;;
75997;SDS011;64685;48.762;44.822;2023-09-19T19:02:37;26.02;;;12.20;;
75997;SDS011;64685;48.762;44.822;2023-09-19T19:07:43;30.83;;;13.63;;
75997;SDS011;64685;48.762;44.822;2023-09-19T19:12:46;34.90;;;14.32;;
75997;SDS011;64685;48.762;44.822;2023-09-19T19:17:49;34.85;;;13.82;;
75997;SDS011;64685;48.762;44.822;2023-09-19T19:22:52;30.38;;;13.35;;
75997;SDS011;64685;48.762;44.822;2023-09-19T19:27:55;34.90;;;13.20;;
75997;SDS011;64685;48.762;44.822;2023-09-19T19:32:57;33.72;;;13.60;;
75997;SDS011;64685;48.762;44.822;2023-09-19T19:38:00;32.30;;;13.23;;
75997;SDS011;64685;48.762;44.822;2023-09-19T19:43:03;29.88;;;12.52;;
75997;SDS011;64685;48.762;44.822;2023-09-19T19:48:06;28.80;;;12.88;;
75997;SDS011;64685;48.762;44.822;2023-09-19T19:53:09;33.20;;;14.45;;
75997;SDS011;64685;48.762;44.822;2023-09-19T19:58:12;32.55;;;13.50;;
75997;SDS011;64685;48.762;44.822;2023-09-19T20:03:17;29.23;;;13.15;;
75997;SDS011;64685;48.762;44.822;2023-09-19T20:08:20;29.88;;;13.98;;
75997;SDS011;64685;48.762;44.822;2023-09-19T20:13:23;32.55;;;13.02;;
75997;SDS011;64685;48.762;44.822;2023-09-19T20:18:26;29.60;;;12.15;;
75997;SDS011;64685;48.762;44.822;2023-09-19T20:23:28;25.70;;;12.02;;
75997;SDS011;64685;48.762;44.822;2023-09-19T20:28:31;29.05;;;11.52;;
75997;SDS011;64685;48.762;44.822;2023-09-19T20:33:34;33.65;;;13.02;;
75997;SDS011;64685;48.762;44.822;2023-09-19T20:38:39;27.48;;;11.70;;
75997;SDS011;64685;48.762;44.822;2023-09-19T20:43:46;33.40;;;12.77;;
75997;SDS011;64685;48.762;44.822;2023-09-19T20:48:48;34.40;;;13.25;;
75997;SDS011;64685;48.762;44.822;2023-09-19T20:53:52;33.40;;;13.88;;
75997;SDS011;64685;48.762;44.822;2023-09-19T20:58:55;33.55;;;12.65;;
75997;SDS011;64685;48.762;44.822;2023-09-19T21:03:58;29.15;;;13.50;;
75997;SDS011;64685;48.762;44.822;2023-09-19T21:09:01;28.92;;;13.35;;
75997;SDS011;64685;48.762;44.822;2023-09-19T21:14:03;27.10;;;12.55;;
75997;SDS011;64685;48.762;44.822;2023-09-19T21:19:08;30.05;;;11.93;;
75997;SDS011;64685;48.762;44.822;2023-09-19T21:24:12;31.65;;;15.50;;
75997;SDS011;64685;48.762;44.822;2023-09-19T21:29:18;34.80;;;13.98;;
75997;SDS011;64685;48.762;44.822;2023-09-19T21:34:21;34.83;;;15.07;;
75997;SDS011;64685;48.762;44.822;2023-09-19T21:39:24;35.08;;;13.85;;
75997;SDS011;64685;48.762;44.822;2023-09-19T21:44:27;33.08;;;15.05;;
75997;SDS011;64685;48.762;44.822;2023-09-19T21:49:29;40.67;;;17.60;;
75997;SDS011;64685;48.762;44.822;2023-09-19T21:54:32;45.40;;;17.20;;
75997;SDS011;64685;48.762;44.822;2023-09-19T21:59:34;51.97;;;21.05;;
75997;SDS011;64685;48.762;44.822;2023-09-19T22:04:37;38.33;;;17.27;;
75997;SDS011;64685;48.762;44.822;2023-09-19T22:09:42;41.38;;;18.60;;
75997;SDS011;64685;48.762;44.822;2023-09-19T22:14:45;42.08;;;18.77;;
75997;SDS011;64685;48.762;44.822;2023-09-19T22:19:47;39.72;;;18.33;;
75997;SDS011;64685;48.762;44.822;2023-09-19T22:24:50;43.55;;;17.95;;
75997;SDS011;64685;48.762;44.822;2023-09-19T22:29:56;38.17;;;18.45;;
75997;SDS011;64685;48.762;44.822;2023-09-19T22:34:58;39.40;;;16.35;;
75997;SDS011;64685;48.762;44.822;2023-09-19T22:40:05;42.17;;;17.40;;
75997;SDS011;64685;48.762;44.822;2023-09-19T22:45:19;30.63;;;14.70;;
75997;SDS011;64685;48.762;44.822;2023-09-19T22:50:24;30.33;;;14.77;;
75997;SDS011;64685;48.762;44.822;2023-09-19T22:55:28;33.83;;;15.48;;
75997;SDS011;64685;48.762;44.822;2023-09-19T23:00:33;36.55;;;16.83;;
75997;SDS011;64685;48.762;44.822;2023-09-19T23:05:36;26.10;;;12.73;;
75997;SDS011;64685;48.762;44.822;2023-09-19T23:10:45;24.67;;;11.10;;
75997;SDS011;64685;48.762;44.822;2023-09-19T23:15:54;29.35;;;13.73;;
75997;SDS011;64685;48.762;44.822;2023-09-19T23:20:57;23.08;;;12.00;;
75997;SDS011;64685;48.762;44.822;2023-09-19T23:26:14;24.02;;;12.40;;
75997;SDS011;64685;48.762;44.822;2023-09-19T23:31:18;27.80;;;13.98;;
75997;SDS011;64685;48.762;44.822;2023-09-19T23:36:22;26.63;;;13.68;;
75997;SDS011;64685;48.762;44.822;2023-09-19T23:41:25;29.70;;;13.40;;
75997;SDS011;64685;48.762;44.822;2023-09-19T23:46:29;24.17;;;12.00;;
75997;SDS011;64685;48.762;44.822;2023-09-19T23:51:35;28.02;;;13.55;;
75997;SDS011;64685;48.762;44.822;2023-09-19T23:56:40;25.25;;;13.15;;
